Time;durP1;ratioP1;P1;durP2;ratioP2;P2;SDS_P1;SDS_P2;PMS_P1;PMS_P2;Temp;Humidity;BMP_temperature;BMP_pressure;BME280_temperature;BME280_humidity;BME280_pressure;Samples;Min_cycle;Max_cycle;Signal;HPM_P1;HPM_P2
2022/08/12 00:49:53;;;;;;;3.70;2.97;;;;;21.60;99029.00;;;;16654012;28;20229;-47
2022/08/12 00:57:57;;;;;;;3.03;2.80;;;;;20.60;99047.00;;;;16653027;28;20202;-46
2022/08/12 01:14:23;;;;;;;5.10;3.00;;;;;20.70;99034.00;;;;16649424;28;20543;-47
2022/08/12 01:22:34;;;;;;;4.73;3.10;;;;;20.60;99036.00;;;;16649714;28;20304;-47
2022/08/12 01:30:41;;;;;;;3.43;2.97;;;;;20.10;99037.00;;;;16649380;28;20225;-47
2022/08/12 01:38:47;;;;;;;3.20;2.90;;;;;20.60;99028.00;;;;16650929;28;20207;-47
2022/08/12 01:46:57;;;;;;;3.10;2.80;;;;;20.60;99033.00;;;;16652105;28;20546;-47
2022/08/12 01:54:59;;;;;;;3.70;3.40;;;;;20.40;99019.00;;;;16649768;28;20509;-47
2022/08/12 02:03:10;;;;;;;3.53;3.23;;;;;19.70;99007.00;;;;16648046;28;20242;-46
2022/08/12 02:11:18;;;;;;;3.13;2.87;;;;;20.10;99015.00;;;;16649044;28;20712;-46
2022/08/12 02:19:49;;;;;;;4.83;3.03;;;;;19.90;99010.00;;;;16649081;28;20222;-46
2022/08/12 02:27:53;;;;;;;3.20;3.00;;;;;19.40;99020.00;;;;16617681;28;20716;-46
2022/08/12 02:35:57;;;;;;;3.37;3.07;;;;;19.50;99009.00;;;;16646228;28;20213;-46
2022/08/12 02:44:03;;;;;;;3.93;3.30;;;;;19.60;99003.00;;;;16645426;28;20718;-47
2022/08/12 02:52:07;;;;;;;3.40;3.10;;;;;19.40;99007.00;;;;16645423;28;20280;-47
2022/08/12 03:00:11;;;;;;;3.23;3.03;;;;;19.40;98999.00;;;;16640748;28;20309;-46
2022/08/12 03:08:20;;;;;;;4.50;3.60;;;;;19.20;99003.00;;;;16634231;28;20213;-46
2022/08/12 03:16:23;;;;;;;3.77;3.47;;;;;19.30;98990.00;;;;16642003;28;20213;-47
2022/08/12 03:24:27;;;;;;;4.13;3.70;;;;;19.00;99000.00;;;;16645822;28;20230;-47
2022/08/12 03:32:32;;;;;;;3.77;3.47;;;;;19.00;98998.00;;;;16646994;28;20217;-46
2022/08/12 04:05:44;;;;;;;3.83;3.57;;;;;19.30;99008.00;;;;16644070;28;20229;-46
2022/08/12 04:13:49;;;;;;;4.90;4.40;;;;;18.30;99014.00;;;;16649197;28;20213;-46
2022/08/12 04:21:51;;;;;;;4.90;4.50;;;;;18.70;99005.00;;;;16648564;28;20218;-47
2022/08/12 04:29:56;;;;;;;4.03;3.73;;;;;18.60;99002.00;;;;16653199;28;20741;-47
2022/08/12 04:37:59;;;;;;;4.00;3.70;;;;;18.50;99005.00;;;;16632221;28;20198;-47
2022/08/12 04:46:03;;;;;;;7.33;5.50;;;;;18.80;99015.00;;;;16634447;28;20230;-47
2022/08/12 04:54:06;;;;;;;5.10;4.60;;;;;18.70;99014.00;;;;16636152;28;20228;-46
2022/08/12 05:02:10;;;;;;;4.90;4.30;;;;;19.00;99012.00;;;;16632933;28;20226;-47
2022/08/12 05:10:12;;;;;;;4.83;4.20;;;;;19.20;99010.00;;;;16632667;28;20355;-47
2022/08/12 05:18:16;;;;;;;5.50;4.87;;;;;19.70;99010.00;;;;16632082;28;20296;-47
2022/08/12 05:26:19;;;;;;;4.47;3.90;;;;;20.20;99016.00;;;;16635014;28;20704;-46
2022/08/12 05:34:22;;;;;;;15.43;5.57;;;;;20.60;99020.00;;;;16633352;28;20215;-47
2022/08/12 05:42:25;;;;;;;4.30;4.00;;;;;20.80;99026.00;;;;16630617;28;20357;-47
2022/08/12 05:50:29;;;;;;;4.43;3.60;;;;;21.20;99033.00;;;;16630739;28;20239;-48
2022/08/12 05:58:31;;;;;;;5.53;4.30;;;;;21.90;99037.00;;;;16620698;28;20202;-47
2022/08/12 06:06:40;;;;;;;5.47;3.67;;;;;23.40;99040.00;;;;16630134;28;20894;-47
2022/08/12 06:14:43;;;;;;;8.70;4.70;;;;;24.20;99034.00;;;;16646349;28;20771;-47
2022/08/12 06:22:47;;;;;;;8.17;4.10;;;;;24.20;99036.00;;;;16638936;28;20241;-47
2022/08/12 06:30:50;;;;;;;5.53;5.00;;;;;25.30;99039.00;;;;16643532;28;20219;-47
2022/08/12 06:38:54;;;;;;;12.13;5.50;;;;;25.30;99047.00;;;;16640077;28;20223;-47
2022/08/12 06:46:56;;;;;;;8.03;4.70;;;;;25.80;99032.00;;;;16634402;28;20223;-48
2022/08/12 06:55:00;;;;;;;7.63;5.10;;;;;26.40;99041.00;;;;16606692;28;20285;-47
2022/08/12 07:03:04;;;;;;;105.00;51.37;;;;;26.40;99033.00;;;;16639437;28;20219;-47
2022/08/12 07:11:12;;;;;;;8.50;6.70;;;;;26.90;99035.00;;;;16629667;28;20389;-47
2022/08/12 07:19:14;;;;;;;14.30;11.67;;;;;26.70;99035.00;;;;16631224;28;20222;-47
2022/08/12 07:27:18;;;;;;;53.73;30.80;;;;;26.30;99034.00;;;;16622452;28;20222;-47
2022/08/12 07:35:21;;;;;;;26.43;16.33;;;;;26.60;99035.00;;;;16634868;28;20291;-47
2022/08/12 07:43:26;;;;;;;13.73;10.60;;;;;26.60;99028.00;;;;16625923;28;20223;-46
2022/08/12 07:51:29;;;;;;;10.87;6.53;;;;;26.30;99018.00;;;;16638778;28;20540;-48
2022/08/12 07:59:34;;;;;;;8.17;6.30;;;;;26.40;99028.00;;;;16650559;28;20228;-47
2022/08/12 08:07:37;;;;;;;4.53;4.03;;;;;26.50;99013.00;;;;16711521;22;20237;-46
2022/08/12 08:15:41;;;;;;;6.73;3.43;;;;;27.00;99005.00;;;;16696205;28;20582;-45
2022/08/12 08:32:06;;;;;;;3.93;2.70;;;;;28.40;99000.00;;;;16707627;28;20293;-47
2022/08/12 08:48:32;;;;;;;8.13;3.17;;;;;28.10;98994.00;;;;16714419;28;20442;-47
2022/08/12 08:56:42;;;;;;;3.13;2.90;;;;;28.70;99000.00;;;;16700518;28;20625;-46
2022/08/12 09:04:46;;;;;;;2.50;2.30;;;;;28.90;98999.00;;;;16707058;28;20705;-46
2022/08/12 09:21:10;;;;;;;6.30;2.60;;;;;28.40;98997.00;;;;16698589;28;20199;-45
2022/08/12 09:29:13;;;;;;;2.40;2.20;;;;;28.60;98997.00;;;;16711620;28;20222;-46
2022/08/12 09:37:17;;;;;;;3.80;2.83;;;;;29.00;98984.00;;;;16712650;28;20226;-46
2022/08/12 09:45:23;;;;;;;7.53;4.00;;;;;29.10;98971.00;;;;16704593;28;20218;-46
2022/08/12 09:53:27;;;;;;;4.63;3.03;;;;;28.70;98969.00;;;;16699659;28;20770;-46
2022/08/12 10:01:30;;;;;;;4.47;2.87;;;;;29.20;98948.00;;;;16699442;28;20206;-46
2022/08/12 10:09:34;;;;;;;3.37;2.60;;;;;30.60;98941.00;;;;16704942;28;20279;-46
2022/08/12 10:17:37;;;;;;;4.77;3.40;;;;;30.80;98940.00;;;;16701309;28;20210;-46
2022/08/12 10:34:04;;;;;;;2.33;2.00;;;;;31.70;98923.00;;;;16703831;28;20781;-46
2022/08/12 10:50:30;;;;;;;4.47;2.37;;;;;30.80;98922.00;;;;16711552;28;20549;-46
2022/08/12 10:58:36;;;;;;;2.80;2.30;;;;;30.40;98915.00;;;;16683445;28;20693;-46
2022/08/12 11:06:46;;;;;;;4.40;2.07;;;;;31.00;98898.00;;;;16719354;28;20642;-46
2022/08/12 11:14:50;;;;;;;2.30;2.10;;;;;32.90;98889.00;;;;16689675;28;20702;-46
2022/08/12 11:22:56;;;;;;;2.90;2.07;;;;;31.40;98883.00;;;;16697565;28;20709;-46
2022/08/12 11:31:00;;;;;;;10.97;9.83;;;;;33.90;98870.00;;;;16716910;28;20271;-47
2022/08/12 11:39:03;;;;;;;2.77;2.57;;;;;33.90;98871.00;;;;16720099;28;20225;-48
2022/08/12 11:47:07;;;;;;;3.33;2.70;;;;;33.70;98874.00;;;;16709834;28;20649;-48
2022/08/12 11:55:09;;;;;;;3.90;2.33;;;;;34.10;98866.00;;;;16703151;28;20787;-48
2022/08/12 12:03:13;;;;;;;2.73;2.37;;;;;34.70;98862.00;;;;16713541;28;20229;-48
2022/08/12 12:11:16;;;;;;;2.40;2.20;;;;;33.70;98861.00;;;;16714450;28;20194;-48
2022/08/12 12:19:20;;;;;;;4.50;2.60;;;;;32.10;98849.00;;;;16709634;28;20669;-47
2022/08/12 12:27:22;;;;;;;3.83;2.93;;;;;34.80;98851.00;;;;16707173;28;20217;-48
2022/08/12 12:35:26;;;;;;;2.30;2.10;;;;;36.00;98841.00;;;;16714588;28;20220;-48
2022/08/12 12:43:30;;;;;;;4.53;2.27;;;;;35.20;98850.00;;;;16707929;28;20224;-48
2022/08/12 12:51:33;;;;;;;3.43;2.10;;;;;34.50;98841.00;;;;16706251;28;20206;-48
2022/08/12 12:59:36;;;;;;;2.67;2.43;;;;;34.50;98835.00;;;;16706730;28;20244;-48
2022/08/12 13:07:41;;;;;;;5.17;3.17;;;;;33.00;98847.00;;;;16703478;28;20222;-48
2022/08/12 13:15:43;;;;;;;4.30;2.73;;;;;34.00;98830.00;;;;16710273;28;20569;-49
2022/08/12 13:23:48;;;;;;;3.03;2.67;;;;;33.30;98831.00;;;;16713654;28;20363;-48
2022/08/12 13:31:54;;;;;;;2.90;2.60;;;;;32.90;98820.00;;;;16708777;28;20213;-48
2022/08/12 13:39:58;;;;;;;2.00;1.90;;;;;32.80;98806.00;;;;16714738;28;20206;-48
2022/08/12 13:48:02;;;;;;;5.57;3.00;;;;;32.20;98801.00;;;;16705104;28;20271;-48
2022/08/12 13:56:10;;;;;;;3.07;2.77;;;;;32.10;98817.00;;;;16708430;28;20222;-49
2022/08/12 14:04:13;;;;;;;5.37;3.13;;;;;32.00;98821.00;;;;16704612;28;20230;-48
2022/08/12 14:12:17;;;;;;;7.40;2.23;;;;;34.10;98811.00;;;;16714088;28;20241;-49
2022/08/12 14:20:20;;;;;;;4.93;2.30;;;;;38.40;98804.00;;;;16709489;28;20285;-48
2022/08/12 14:28:24;;;;;;;6.03;1.77;;;;;36.60;98795.00;;;;16704147;28;20303;-49
2022/08/12 14:36:26;;;;;;;3.80;2.27;;;;;37.60;98787.00;;;;16706028;28;20293;-49
2022/08/12 14:44:30;;;;;;;4.13;1.60;;;;;35.60;98776.00;;;;16764079;22;20229;-49
2022/08/12 14:52:42;;;;;;;1.77;1.67;;;;;36.40;98780.00;;;;16814835;28;20221;-50
2022/08/12 15:09:08;;;;;;;3.97;2.07;;;;;32.90;98802.00;;;;16811472;28;20697;-50
2022/08/12 15:17:12;;;;;;;2.07;1.93;;;;;31.10;98799.00;;;;16807682;28;22265;-50
2022/08/12 15:25:14;;;;;;;6.20;2.40;;;;;34.80;98782.00;;;;16801666;28;20390;-50
2022/08/12 15:33:18;;;;;;;1.77;1.40;;;;;37.20;98785.00;;;;16807691;28;20246;-50
2022/08/12 15:41:21;;;;;;;2.67;1.83;;;;;37.50;98785.00;;;;16800979;28;20224;-51
2022/08/12 15:49:25;;;;;;;1.43;1.33;;;;;37.50;98772.00;;;;16792649;28;20595;-50
2022/08/12 15:57:28;;;;;;;1.80;1.50;;;;;36.50;98774.00;;;;16805791;28;20311;-50
2022/08/12 16:05:34;;;;;;;3.97;1.73;;;;;34.40;98778.00;;;;16772163;28;20588;-50
2022/08/12 16:13:36;;;;;;;4.20;2.20;;;;;33.70;98775.00;;;;16772451;28;20612;-50
2022/08/12 16:21:43;;;;;;;3.60;2.33;;;;;32.50;98773.00;;;;16766704;28;20223;-50
2022/08/12 16:29:55;;;;;;;2.33;2.00;;;;;32.10;98782.00;;;;16775788;28;20682;-49
2022/08/12 16:38:01;;;;;;;6.10;2.00;;;;;34.70;98772.00;;;;16793626;28;20213;-50
2022/08/12 16:46:06;;;;;;;3.70;2.10;;;;;35.40;98758.00;;;;16772259;28;20708;-50
2022/08/12 16:54:10;;;;;;;4.00;2.20;;;;;37.00;98764.00;;;;16784769;28;20224;-50
2022/08/12 17:02:12;;;;;;;2.30;1.93;;;;;35.80;98769.00;;;;16775640;28;20221;-50
2022/08/12 17:10:18;;;;;;;2.57;1.83;;;;;37.20;98766.00;;;;16788185;28;20244;-50
2022/08/12 17:18:20;;;;;;;2.70;1.80;;;;;38.00;98765.00;;;;16768166;28;20213;-50
2022/08/12 17:26:29;;;;;;;2.53;1.80;;;;;37.80;98762.00;;;;16771453;28;20716;-50
2022/08/12 17:42:53;;;;;;;1.80;1.10;;;;;33.90;98777.00;;;;16780648;28;20226;-49
2022/08/12 17:50:55;;;;;;;1.70;1.13;;;;;33.60;98770.00;;;;16780573;28;20273;-50
2022/08/12 17:59:00;;;;;;;2.77;1.30;;;;;33.60;98770.00;;;;16772846;28;20280;-49
2022/08/12 18:07:03;;;;;;;8.10;1.50;;;;;33.10;98767.00;;;;16771353;28;20468;-49
2022/08/12 18:15:09;;;;;;;1.20;1.10;;;;;31.50;98773.00;;;;16772631;28;20296;-49
2022/08/12 18:23:12;;;;;;;1.70;1.20;;;;;30.50;98782.00;;;;16772967;28;20213;-49
2022/08/12 18:31:17;;;;;;;1.90;1.70;;;;;30.50;98783.00;;;;16809233;28;20216;-49
2022/08/12 18:39:20;;;;;;;4.27;2.47;;;;;31.00;98786.00;;;;16816143;28;20692;-50
2022/08/12 18:47:25;;;;;;;3.40;3.10;;;;;30.60;98781.00;;;;16782988;28;20240;-49
2022/08/12 18:55:28;;;;;;;2.67;2.20;;;;;30.20;98781.00;;;;16780083;28;20987;-51
2022/08/12 19:03:36;;;;;;;3.53;2.40;;;;;29.00;98801.00;;;;16781079;28;20218;-48
2022/08/12 19:20:03;;;;;;;2.00;1.80;;;;;27.80;98841.00;;;;16799827;28;20325;-48
2022/08/12 19:28:06;;;;;;;5.27;2.40;;;;;28.50;98850.00;;;;16802888;28;20220;-49
2022/08/12 19:36:10;;;;;;;3.93;2.93;;;;;28.20;98845.00;;;;16807560;28;20844;-50
2022/08/12 19:44:14;;;;;;;5.07;1.90;;;;;28.20;98843.00;;;;16804841;28;20220;-48
2022/08/12 19:52:18;;;;;;;5.00;2.23;;;;;28.00;98847.00;;;;16781771;28;20225;-50
2022/08/12 20:00:24;;;;;;;4.17;2.73;;;;;27.80;98860.00;;;;16781811;28;20205;-49
2022/08/12 20:08:28;;;;;;;5.23;4.73;;;;;27.60;98862.00;;;;16788718;28;20225;-50
2022/08/12 20:16:35;;;;;;;2.67;2.40;;;;;27.70;98865.00;;;;16789304;28;20322;-50
2022/08/12 20:24:40;;;;;;;2.60;2.40;;;;;27.10;98864.00;;;;16777612;28;20228;-48
2022/08/12 20:32:54;;;;;;;4.93;2.57;;;;;25.70;98865.00;;;;16785499;28;20588;-50
2022/08/12 20:40:58;;;;;;;2.47;2.20;;;;;25.00;98868.00;;;;16804275;28;20207;-49
2022/08/12 20:49:01;;;;;;;2.60;1.50;;;;;23.30;98870.00;;;;16803702;28;20221;-49
2022/08/12 20:57:06;;;;;;;2.77;1.80;;;;;23.20;98874.00;;;;16792845;28;20240;-50
2022/08/12 21:13:30;;;;;;;3.50;2.70;;;;;22.80;98871.00;;;;16790082;28;20226;-50
2022/08/12 21:21:32;;;;;;;1.77;1.67;;;;;22.80;98880.00;;;;16775622;28;20224;-50
2022/08/12 21:29:36;;;;;;;4.03;2.17;;;;;22.60;98869.00;;;;16779151;28;20644;-50
2022/08/12 21:37:41;;;;;;;2.53;2.27;;;;;22.80;98876.00;;;;16774009;28;20784;-49
2022/08/12 21:45:45;;;;;;;2.37;2.17;;;;;21.20;98876.00;;;;16780068;28;20566;-49
2022/08/12 21:53:47;;;;;;;3.80;2.27;;;;;21.40;98882.00;;;;16775737;28;20700;-49
2022/08/12 22:01:52;;;;;;;2.10;2.00;;;;;20.90;98880.00;;;;16775669;28;20213;-49
2022/08/12 22:09:55;;;;;;;3.80;2.30;;;;;20.90;98886.00;;;;16782189;28;20225;-50
2022/08/12 22:18:06;;;;;;;4.73;1.90;;;;;20.90;98891.00;;;;16775313;28;20209;-49
2022/08/12 22:26:09;;;;;;;3.37;2.17;;;;;20.70;98894.00;;;;16764559;28;20225;-49
2022/08/12 22:34:13;;;;;;;3.40;2.43;;;;;20.30;98905.00;;;;16768397;28;20205;-50
2022/08/12 22:50:56;;;;;;;2.07;1.87;;;;;19.90;98893.00;;;;16602775;28;20217;-50
2022/08/12 22:59:01;;;;;;;4.67;1.87;;;;;20.20;98898.00;;;;16773883;28;20197;-48
2022/08/12 23:07:05;;;;;;;2.63;2.43;;;;;20.20;98888.00;;;;16781241;28;20225;-49
2022/08/12 23:15:09;;;;;;;2.20;1.87;;;;;19.40;98894.00;;;;16768477;28;20205;-48
2022/08/12 23:23:16;;;;;;;2.90;2.60;;;;;19.20;98881.00;;;;16766541;28;20230;-49
2022/08/12 23:31:22;;;;;;;2.93;2.10;;;;;19.00;98879.00;;;;16774136;28;20322;-48
2022/08/12 23:39:27;;;;;;;2.40;2.20;;;;;19.80;98881.00;;;;16785087;28;20384;-49
2022/08/12 23:47:29;;;;;;;2.40;2.20;;;;;18.90;98876.00;;;;16766044;28;20233;-49
2022/08/12 23:55:34;;;;;;;6.40;2.60;;;;;19.70;98873.00;;;;16762212;28;20217;-49
